Letham, United Kingdom
Current Conditions -  °F | °C
As of 8:50 AM on Friday 24 Oct 2014 (Local Time) from EGPN Reporting Station
Rain Showers Rain Showers  
Wind Chill: 45°   Ceiling: Unl
Heat Index: 48°   Visibility: 6mi
Dew Point: 46°   Wind: 7mph
Humidity: 93%   Direction: 270°W
Pressure: 29.74"   Gusts: NA
Location:  56.62°N, 2.77°W
Report Text: EGPN 240750Z 27006KT 230V300 9999 VCSH FEW015 SCT040 09/08 Q1007
Loading
Personal Weather Stations






























Interactive Weather Map
Tropical Storm Tracking
New forecast layout! Learn more

10-Day Weather Forecast

Advertisements
Track Severe Weather on mobile